sensor_id;sensor_type;location;lat;lon;timestamp;temperature;humidity
53065;DHT22;38948;48.376;-4.312;2022-08-21T14:38:42;25.20;69.10
53065;DHT22;38948;48.376;-4.312;2022-08-21T15:52:26;26.20;65.20
53065;DHT22;38948;48.376;-4.312;2022-08-21T15:54:52;26.00;65.50
53065;DHT22;38948;48.376;-4.312;2022-08-21T15:57:21;25.60;66.60
53065;DHT22;38948;48.376;-4.312;2022-08-21T15:59:50;25.40;67.10
53065;DHT22;38948;48.376;-4.312;2022-08-21T16:02:29;25.30;67.70
53065;DHT22;38948;48.376;-4.312;2022-08-21T16:04:56;25.20;67.80
53065;DHT22;38948;48.376;-4.312;2022-08-21T16:07:22;25.10;67.90
53065;DHT22;38948;48.376;-4.312;2022-08-21T16:09:48;25.10;68.10
53065;DHT22;38948;48.376;-4.312;2022-08-21T16:12:21;25.10;68.20
53065;DHT22;38948;48.376;-4.312;2022-08-21T16:14:48;25.00;68.30
53065;DHT22;38948;48.376;-4.312;2022-08-21T16:17:15;25.00;68.50
53065;DHT22;38948;48.376;-4.312;2022-08-21T16:19:41;25.00;69.00
53065;DHT22;38948;48.376;-4.312;2022-08-21T16:22:07;25.00;69.20
53065;DHT22;38948;48.376;-4.312;2022-08-21T16:24:33;25.00;69.50
53065;DHT22;38948;48.376;-4.312;2022-08-21T16:26:59;25.00;69.80
53065;DHT22;38948;48.376;-4.312;2022-08-21T16:29:34;25.00;70.40
53065;DHT22;38948;48.376;-4.312;2022-08-21T16:32:00;25.00;70.30
53065;DHT22;38948;48.376;-4.312;2022-08-21T16:34:26;25.00;70.20
53065;DHT22;38948;48.376;-4.312;2022-08-21T16:36:53;25.00;70.60
53065;DHT22;38948;48.376;-4.312;2022-08-21T16:39:19;25.10;70.40
53065;DHT22;38948;48.376;-4.312;2022-08-21T16:41:48;25.10;70.40
53065;DHT22;38948;48.376;-4.312;2022-08-21T16:44:15;24.90;71.10
53065;DHT22;38948;48.376;-4.312;2022-08-21T16:46:45;25.00;71.00
53065;DHT22;38948;48.376;-4.312;2022-08-21T16:49:12;24.90;71.20
53065;DHT22;38948;48.376;-4.312;2022-08-21T16:51:39;24.90;71.90
53065;DHT22;38948;48.376;-4.312;2022-08-21T16:54:05;24.90;71.90
53065;DHT22;38948;48.376;-4.312;2022-08-21T16:56:31;24.90;71.80
53065;DHT22;38948;48.376;-4.312;2022-08-21T16:58:57;25.00;71.50
53065;DHT22;38948;48.376;-4.312;2022-08-21T17:01:27;25.00;71.10
53065;DHT22;38948;48.376;-4.312;2022-08-21T17:03:54;25.00;71.10
53065;DHT22;38948;48.376;-4.312;2022-08-21T17:06:21;25.10;71.30
53065;DHT22;38948;48.376;-4.312;2022-08-21T17:08:53;25.10;70.80
53065;DHT22;38948;48.376;-4.312;2022-08-21T17:13:51;25.20;70.40
53065;DHT22;38948;48.376;-4.312;2022-08-21T17:16:17;25.20;70.10
53065;DHT22;38948;48.376;-4.312;2022-08-21T17:18:42;25.20;69.90
53065;DHT22;38948;48.376;-4.312;2022-08-21T17:21:09;25.20;69.80
53065;DHT22;38948;48.376;-4.312;2022-08-21T17:23:34;25.20;69.80
53065;DHT22;38948;48.376;-4.312;2022-08-21T17:26:01;25.20;69.80
53065;DHT22;38948;48.376;-4.312;2022-08-21T17:28:29;25.20;69.80
53065;DHT22;38948;48.376;-4.312;2022-08-21T17:30:57;25.20;69.80
53065;DHT22;38948;48.376;-4.312;2022-08-21T17:33:24;25.20;69.80
53065;DHT22;38948;48.376;-4.312;2022-08-21T17:35:52;25.20;69.80
53065;DHT22;38948;48.376;-4.312;2022-08-21T17:38:18;25.20;70.10
53065;DHT22;38948;48.376;-4.312;2022-08-21T17:40:45;25.20;70.50
53065;DHT22;38948;48.376;-4.312;2022-08-21T17:43:12;25.20;71.50
53065;DHT22;38948;48.376;-4.312;2022-08-21T17:45:40;25.20;71.60
53065;DHT22;38948;48.376;-4.312;2022-08-21T17:48:06;25.20;71.70
53065;DHT22;38948;48.376;-4.312;2022-08-21T17:50:32;25.10;71.90
53065;DHT22;38948;48.376;-4.312;2022-08-21T17:52:58;25.10;72.20
53065;DHT22;38948;48.376;-4.312;2022-08-21T17:55:24;25.10;72.40
53065;DHT22;38948;48.376;-4.312;2022-08-21T17:57:53;25.10;72.40
53065;DHT22;38948;48.376;-4.312;2022-08-21T18:00:21;25.10;72.30
53065;DHT22;38948;48.376;-4.312;2022-08-21T18:02:55;25.10;72.00
53065;DHT22;38948;48.376;-4.312;2022-08-21T18:05:23;25.10;72.00
53065;DHT22;38948;48.376;-4.312;2022-08-21T18:07:49;25.10;71.90
53065;DHT22;38948;48.376;-4.312;2022-08-21T18:10:15;25.10;71.90
53065;DHT22;38948;48.376;-4.312;2022-08-21T18:12:42;25.10;71.70
53065;DHT22;38948;48.376;-4.312;2022-08-21T18:15:12;25.00;71.80
53065;DHT22;38948;48.376;-4.312;2022-08-21T18:17:40;25.00;71.80
53065;DHT22;38948;48.376;-4.312;2022-08-21T18:20:07;25.00;71.60
53065;DHT22;38948;48.376;-4.312;2022-08-21T18:22:33;25.00;71.40
53065;DHT22;38948;48.376;-4.312;2022-08-21T18:24:59;25.00;71.80
53065;DHT22;38948;48.376;-4.312;2022-08-21T18:27:25;25.00;72.10
53065;DHT22;38948;48.376;-4.312;2022-08-21T18:29:53;24.90;72.20
53065;DHT22;38948;48.376;-4.312;2022-08-21T18:32:22;24.90;72.10
53065;DHT22;38948;48.376;-4.312;2022-08-21T18:34:49;24.90;72.10
53065;DHT22;38948;48.376;-4.312;2022-08-21T18:37:16;24.90;72.20
53065;DHT22;38948;48.376;-4.312;2022-08-21T18:39:42;24.90;72.20
53065;DHT22;38948;48.376;-4.312;2022-08-21T18:42:13;24.90;72.20
53065;DHT22;38948;48.376;-4.312;2022-08-21T18:44:46;24.90;72.60
53065;DHT22;38948;48.376;-4.312;2022-08-21T18:47:22;24.90;72.90
53065;DHT22;38948;48.376;-4.312;2022-08-21T18:49:48;24.90;72.60
53065;DHT22;38948;48.376;-4.312;2022-08-21T18:52:14;24.90;72.90
53065;DHT22;38948;48.376;-4.312;2022-08-21T18:54:40;24.90;72.70
53065;DHT22;38948;48.376;-4.312;2022-08-21T18:57:07;24.90;72.80
53065;DHT22;38948;48.376;-4.312;2022-08-21T18:59:33;24.90;72.80
53065;DHT22;38948;48.376;-4.312;2022-08-21T19:02:00;24.90;72.80
53065;DHT22;38948;48.376;-4.312;2022-08-21T19:04:26;24.90;72.60
53065;DHT22;38948;48.376;-4.312;2022-08-21T19:06:52;24.90;72.30
53065;DHT22;38948;48.376;-4.312;2022-08-21T19:09:18;24.90;72.50
53065;DHT22;38948;48.376;-4.312;2022-08-21T19:11:44;24.90;72.40
53065;DHT22;38948;48.376;-4.312;2022-08-21T19:14:12;24.80;72.70
53065;DHT22;38948;48.376;-4.312;2022-08-21T19:16:40;24.80;72.70
53065;DHT22;38948;48.376;-4.312;2022-08-21T19:19:07;24.70;72.80
53065;DHT22;38948;48.376;-4.312;2022-08-21T19:21:35;24.70;72.80
53065;DHT22;38948;48.376;-4.312;2022-08-21T19:24:00;24.70;72.80
53065;DHT22;38948;48.376;-4.312;2022-08-21T19:26:27;24.70;72.80
53065;DHT22;38948;48.376;-4.312;2022-08-21T19:28:56;24.60;72.90
53065;DHT22;38948;48.376;-4.312;2022-08-21T19:31:26;24.60;73.20
53065;DHT22;38948;48.376;-4.312;2022-08-21T19:34:15;24.60;73.30
53065;DHT22;38948;48.376;-4.312;2022-08-21T19:36:42;24.50;73.50
53065;DHT22;38948;48.376;-4.312;2022-08-21T19:39:08;24.50;73.30
53065;DHT22;38948;48.376;-4.312;2022-08-21T19:41:38;24.60;73.10
53065;DHT22;38948;48.376;-4.312;2022-08-21T19:44:08;24.60;72.90
53065;DHT22;38948;48.376;-4.312;2022-08-21T19:46:38;24.60;72.80
53065;DHT22;38948;48.376;-4.312;2022-08-21T19:49:05;24.60;72.90
53065;DHT22;38948;48.376;-4.312;2022-08-21T19:51:34;24.60;72.80
53065;DHT22;38948;48.376;-4.312;2022-08-21T19:54:00;24.60;72.90
53065;DHT22;38948;48.376;-4.312;2022-08-21T19:56:29;24.60;72.70
53065;DHT22;38948;48.376;-4.312;2022-08-21T19:58:56;24.50;73.30
53065;DHT22;38948;48.376;-4.312;2022-08-21T20:01:24;24.40;73.70
53065;DHT22;38948;48.376;-4.312;2022-08-21T20:03:51;24.40;73.70
53065;DHT22;38948;48.376;-4.312;2022-08-21T20:06:17;24.40;73.70
53065;DHT22;38948;48.376;-4.312;2022-08-21T20:08:44;24.40;73.90
53065;DHT22;38948;48.376;-4.312;2022-08-21T20:11:13;24.40;74.00
53065;DHT22;38948;48.376;-4.312;2022-08-21T20:13:39;24.40;74.30
53065;DHT22;38948;48.376;-4.312;2022-08-21T20:16:08;24.40;74.30
53065;DHT22;38948;48.376;-4.312;2022-08-21T20:18:36;24.40;74.40
53065;DHT22;38948;48.376;-4.312;2022-08-21T20:21:04;24.40;74.40
53065;DHT22;38948;48.376;-4.312;2022-08-21T20:23:30;24.40;74.50
53065;DHT22;38948;48.376;-4.312;2022-08-21T20:25:58;24.40;75.00
53065;DHT22;38948;48.376;-4.312;2022-08-21T20:28:25;24.30;75.10
53065;DHT22;38948;48.376;-4.312;2022-08-21T20:30:51;24.20;75.40
53065;DHT22;38948;48.376;-4.312;2022-08-21T20:33:17;24.20;75.60
53065;DHT22;38948;48.376;-4.312;2022-08-21T20:35:43;24.10;76.00
53065;DHT22;38948;48.376;-4.312;2022-08-21T20:38:13;24.00;76.00
53065;DHT22;38948;48.376;-4.312;2022-08-21T20:40:39;24.00;76.20
53065;DHT22;38948;48.376;-4.312;2022-08-21T20:43:06;23.90;76.40
53065;DHT22;38948;48.376;-4.312;2022-08-21T20:45:34;23.90;76.60
53065;DHT22;38948;48.376;-4.312;2022-08-21T20:50:34;23.80;76.90
53065;DHT22;38948;48.376;-4.312;2022-08-21T20:53:16;23.70;77.00
53065;DHT22;38948;48.376;-4.312;2022-08-21T20:55:46;23.70;77.00
53065;DHT22;38948;48.376;-4.312;2022-08-21T20:58:31;23.70;77.20
53065;DHT22;38948;48.376;-4.312;2022-08-21T21:01:04;23.70;77.20
53065;DHT22;38948;48.376;-4.312;2022-08-21T21:03:40;23.60;77.30
53065;DHT22;38948;48.376;-4.312;2022-08-21T21:06:12;23.60;77.50
53065;DHT22;38948;48.376;-4.312;2022-08-21T21:08:46;23.50;77.60
53065;DHT22;38948;48.376;-4.312;2022-08-21T21:11:20;23.50;77.80
53065;DHT22;38948;48.376;-4.312;2022-08-21T21:13:50;23.50;77.60
53065;DHT22;38948;48.376;-4.312;2022-08-21T21:22:02;23.30;78.40
53065;DHT22;38948;48.376;-4.312;2022-08-21T21:24:40;23.30;78.40
53065;DHT22;38948;48.376;-4.312;2022-08-21T21:27:49;23.30;78.60
53065;DHT22;38948;48.376;-4.312;2022-08-21T21:30:29;23.20;78.80
53065;DHT22;38948;48.376;-4.312;2022-08-21T21:32:57;23.20;78.60
53065;DHT22;38948;48.376;-4.312;2022-08-21T21:35:28;23.20;78.90
53065;DHT22;38948;48.376;-4.312;2022-08-21T21:38:07;23.20;78.80
53065;DHT22;38948;48.376;-4.312;2022-08-21T21:40:47;23.20;78.90
53065;DHT22;38948;48.376;-4.312;2022-08-21T21:43:55;23.10;79.10
53065;DHT22;38948;48.376;-4.312;2022-08-21T21:46:52;23.10;79.20
53065;DHT22;38948;48.376;-4.312;2022-08-21T21:58:16;23.10;79.00
53065;DHT22;38948;48.376;-4.312;2022-08-21T22:00:58;23.10;78.90
53065;DHT22;38948;48.376;-4.312;2022-08-21T22:03:37;23.10;79.20
53065;DHT22;38948;48.376;-4.312;2022-08-21T22:06:33;23.00;79.10
53065;DHT22;38948;48.376;-4.312;2022-08-21T22:09:40;23.00;79.40
53065;DHT22;38948;48.376;-4.312;2022-08-21T22:14:47;22.90;80.20
53065;DHT22;38948;48.376;-4.312;2022-08-21T22:19:55;22.90;80.30
53065;DHT22;38948;48.376;-4.312;2022-08-21T22:22:25;22.90;80.30
53065;DHT22;38948;48.376;-4.312;2022-08-21T22:25:07;22.90;80.20
53065;DHT22;38948;48.376;-4.312;2022-08-21T22:27:41;22.90;79.90
53065;DHT22;38948;48.376;-4.312;2022-08-21T22:30:16;22.90;79.90
53065;DHT22;38948;48.376;-4.312;2022-08-21T22:33:12;22.80;80.20
53065;DHT22;38948;48.376;-4.312;2022-08-21T22:35:47;22.80;80.40
53065;DHT22;38948;48.376;-4.312;2022-08-21T22:38:31;22.80;80.30
53065;DHT22;38948;48.376;-4.312;2022-08-21T22:41:21;22.70;80.40
53065;DHT22;38948;48.376;-4.312;2022-08-21T22:43:59;22.70;80.50
53065;DHT22;38948;48.376;-4.312;2022-08-21T22:46:56;22.70;80.60
53065;DHT22;38948;48.376;-4.312;2022-08-21T22:49:39;22.70;80.80
53065;DHT22;38948;48.376;-4.312;2022-08-21T22:52:20;22.70;80.90
53065;DHT22;38948;48.376;-4.312;2022-08-21T22:54:46;22.70;81.00
53065;DHT22;38948;48.376;-4.312;2022-08-21T22:57:25;22.60;81.00
53065;DHT22;38948;48.376;-4.312;2022-08-21T23:00:04;22.60;80.90
53065;DHT22;38948;48.376;-4.312;2022-08-21T23:02:45;22.60;81.10
53065;DHT22;38948;48.376;-4.312;2022-08-21T23:07:50;22.60;80.90
53065;DHT22;38948;48.376;-4.312;2022-08-21T23:10:37;22.60;80.50
53065;DHT22;38948;48.376;-4.312;2022-08-21T23:13:11;22.60;80.40
53065;DHT22;38948;48.376;-4.312;2022-08-21T23:15:49;22.60;80.70
53065;DHT22;38948;48.376;-4.312;2022-08-21T23:18:33;22.60;80.80
53065;DHT22;38948;48.376;-4.312;2022-08-21T23:21:32;22.60;81.00
53065;DHT22;38948;48.376;-4.312;2022-08-21T23:26:34;22.50;81.10
53065;DHT22;38948;48.376;-4.312;2022-08-21T23:29:11;22.50;81.40
53065;DHT22;38948;48.376;-4.312;2022-08-21T23:31:43;22.50;81.20
53065;DHT22;38948;48.376;-4.312;2022-08-21T23:48:09;22.60;81.10
